createdAt,value
2022-12-27T00:03:25.300Z,2.10
2022-12-27T00:08:27.951Z,1.90
2022-12-27T00:13:30.904Z,2.00
2022-12-27T00:18:34.010Z,1.80
2022-12-27T00:23:41.503Z,1.50
2022-12-27T00:28:45.141Z,1.90
2022-12-27T00:33:50.458Z,1.80
2022-12-27T00:38:53.920Z,1.80
2022-12-27T00:43:56.649Z,1.60
2022-12-27T00:48:59.426Z,1.50
2022-12-27T00:54:02.193Z,1.30
2022-12-27T00:59:05.581Z,1.50
2022-12-27T01:04:08.457Z,1.30
2022-12-27T01:09:11.353Z,1.50
2022-12-27T01:14:14.025Z,1.40
2022-12-27T01:19:17.060Z,1.40
2022-12-27T01:24:19.957Z,1.50
2022-12-27T01:29:22.654Z,1.30
2022-12-27T01:34:25.368Z,1.40
2022-12-27T01:39:28.144Z,1.60
2022-12-27T01:44:43.988Z,1.30
2022-12-27T01:49:53.446Z,1.60
2022-12-27T01:55:01.408Z,1.70
2022-12-27T02:00:05.133Z,1.90
2022-12-27T02:05:10.438Z,1.70
2022-12-27T02:10:13.761Z,1.70
2022-12-27T02:15:16.504Z,1.50
2022-12-27T02:20:22.910Z,1.60
2022-12-27T02:26:07.811Z,1.60
2022-12-27T02:31:24.954Z,1.70
2022-12-27T02:36:31.815Z,1.70
2022-12-27T02:47:16.158Z,1.90
2022-12-27T02:53:08.313Z,1.30
2022-12-27T02:58:31.668Z,1.70
2022-12-27T03:03:47.737Z,1.70
2022-12-27T03:09:03.015Z,1.80
2022-12-27T03:14:50.139Z,2.00
2022-12-27T03:20:16.733Z,1.70
2022-12-27T03:25:28.791Z,1.80
2022-12-27T03:30:50.488Z,1.90
2022-12-27T03:36:32.205Z,2.60
2022-12-27T03:41:59.353Z,1.60
2022-12-27T03:47:10.041Z,2.00
2022-12-27T03:52:18.598Z,1.60
2022-12-27T03:57:25.168Z,1.50
2022-12-27T04:02:28.077Z,2.20
2022-12-27T04:07:30.939Z,2.60
2022-12-27T04:12:52.617Z,1.70
2022-12-27T04:18:14.059Z,2.00
2022-12-27T04:23:35.910Z,2.60
2022-12-27T04:28:57.216Z,1.90
2022-12-27T04:34:18.787Z,2.10
2022-12-27T04:39:21.792Z,2.30
2022-12-27T04:44:43.329Z,2.10
2022-12-27T04:50:04.766Z,2.00
2022-12-27T04:55:20.403Z,2.00
2022-12-27T05:00:46.322Z,1.80
2022-12-27T05:05:51.635Z,1.70
2022-12-27T05:11:13.326Z,2.80
2022-12-27T05:16:16.112Z,1.60
2022-12-27T05:21:19.123Z,1.70
2022-12-27T05:26:25.302Z,1.90
2022-12-27T05:31:29.188Z,2.40
2022-12-27T05:36:31.919Z,1.80
2022-12-27T05:41:34.642Z,2.30
2022-12-27T05:46:37.494Z,2.10
2022-12-27T05:51:40.226Z,2.10
2022-12-27T05:56:42.930Z,2.60
2022-12-27T06:01:45.729Z,2.50
2022-12-27T06:06:48.636Z,2.00
2022-12-27T06:11:51.285Z,2.90
2022-12-27T06:16:54.063Z,2.40
2022-12-27T06:21:56.939Z,1.80
2022-12-27T06:26:59.744Z,2.90
2022-12-27T06:32:02.538Z,2.00
2022-12-27T06:37:05.273Z,2.50
2022-12-27T06:42:08.561Z,2.00
2022-12-27T06:47:11.519Z,2.10
2022-12-27T06:52:14.254Z,2.50
2022-12-27T06:57:17.366Z,2.20
2022-12-27T07:02:20.392Z,3.50
2022-12-27T07:07:23.378Z,3.40
2022-12-27T07:12:27.353Z,2.90
2022-12-27T07:17:34.351Z,3.00
2022-12-27T07:22:37.013Z,3.00
2022-12-27T07:27:39.730Z,3.30
2022-12-27T07:32:42.424Z,3.20
2022-12-27T07:37:45.205Z,3.90
2022-12-27T07:42:48.458Z,3.20
2022-12-27T07:47:51.221Z,3.50
2022-12-27T07:52:53.908Z,3.60
2022-12-27T07:57:57.864Z,3.00
2022-12-27T08:03:00.888Z,3.50
2022-12-27T08:08:05.389Z,3.80
2022-12-27T08:13:08.177Z,4.40
2022-12-27T08:18:11.002Z,3.50
2022-12-27T08:23:13.794Z,4.20
2022-12-27T08:28:18.020Z,4.70
2022-12-27T08:33:20.731Z,4.40
2022-12-27T08:38:23.530Z,5.30
2022-12-27T08:43:26.489Z,5.10
2022-12-27T08:48:32.519Z,4.80
2022-12-27T08:53:35.301Z,5.00
2022-12-27T08:58:38.010Z,5.80
2022-12-27T09:03:40.728Z,4.60
2022-12-27T09:08:45.513Z,4.50
2022-12-27T09:13:48.564Z,4.40
2022-12-27T09:18:53.256Z,4.60
2022-12-27T09:23:56.315Z,4.80
2022-12-27T09:29:00.351Z,3.80
2022-12-27T09:34:03.150Z,4.30
2022-12-27T09:39:05.921Z,4.50
2022-12-27T09:44:14.898Z,4.00
2022-12-27T09:49:27.579Z,3.90
2022-12-27T09:54:46.413Z,3.30
2022-12-27T09:59:52.776Z,3.00
2022-12-27T10:05:19.616Z,3.20
2022-12-27T10:10:42.645Z,3.80
2022-12-27T10:15:48.504Z,3.40
2022-12-27T10:21:24.168Z,4.00
2022-12-27T10:26:27.341Z,3.10
2022-12-27T10:31:32.004Z,3.70
2022-12-27T10:36:34.798Z,3.10
2022-12-27T10:41:50.158Z,3.50
2022-12-27T10:46:55.374Z,3.40
2022-12-27T10:52:08.544Z,4.00
2022-12-27T10:57:27.991Z,3.10
2022-12-27T11:02:30.739Z,4.70
2022-12-27T11:07:34.755Z,9.10
2022-12-27T11:12:37.854Z,5.90
2022-12-27T11:17:52.097Z,4.10
2022-12-27T11:23:12.954Z,4.40
2022-12-27T11:28:30.762Z,5.30
2022-12-27T11:33:37.636Z,4.60
2022-12-27T11:38:44.681Z,6.10
2022-12-27T11:43:52.926Z,4.80
2022-12-27T11:48:58.801Z,4.70
2022-12-27T11:54:32.142Z,4.40
2022-12-27T11:59:43.896Z,5.10
2022-12-27T12:05:08.021Z,5.10
2022-12-27T12:10:19.552Z,4.60
2022-12-27T12:15:22.470Z,6.20
2022-12-27T12:20:50.812Z,4.70
2022-12-27T12:25:56.618Z,6.20
2022-12-27T12:31:11.152Z,8.00
2022-12-27T12:36:29.205Z,4.20
2022-12-27T12:41:53.155Z,5.80
2022-12-27T12:47:10.188Z,4.40
2022-12-27T12:52:24.973Z,4.80
2022-12-27T12:57:57.374Z,4.80
2022-12-27T13:03:21.889Z,4.20
2022-12-27T13:08:38.996Z,3.80
2022-12-27T13:14:22.893Z,4.20
2022-12-27T13:19:47.641Z,4.50
2022-12-27T13:25:14.357Z,3.40
2022-12-27T13:36:14.490Z,4.60
2022-12-27T13:42:11.265Z,4.20
2022-12-27T13:47:39.023Z,4.80
2022-12-27T13:53:11.800Z,5.30
2022-12-27T13:58:36.861Z,5.10
2022-12-27T14:03:54.856Z,6.20
2022-12-27T14:09:10.686Z,6.10
2022-12-27T14:14:17.612Z,5.60
2022-12-27T14:24:53.336Z,5.70
2022-12-27T14:30:21.888Z,5.90
2022-12-27T14:36:08.509Z,5.30
2022-12-27T14:41:44.751Z,7.50
2022-12-27T14:46:59.590Z,7.70
2022-12-27T14:52:34.869Z,6.10
2022-12-27T14:57:48.249Z,7.30
2022-12-27T15:03:33.690Z,9.20
2022-12-27T15:08:47.508Z,9.50
2022-12-27T15:13:59.121Z,9.30
2022-12-27T15:19:29.318Z,8.90
2022-12-27T15:24:47.376Z,7.00
2022-12-27T15:30:17.022Z,8.20
2022-12-27T15:35:57.757Z,18.60
2022-12-27T15:41:09.613Z,10.70
2022-12-27T15:46:56.067Z,15.90
2022-12-27T15:52:35.709Z,8.70
2022-12-27T15:57:44.342Z,7.70
2022-12-27T16:02:47.186Z,8.00
2022-12-27T16:07:52.312Z,6.40
2022-12-27T16:12:58.437Z,8.50
2022-12-27T16:18:02.694Z,8.30
2022-12-27T16:23:08.034Z,13.00
2022-12-27T16:28:17.025Z,13.10
2022-12-27T16:33:26.008Z,6.80
2022-12-27T16:38:30.753Z,9.00
2022-12-27T16:44:02.000Z,9.50
2022-12-27T16:49:16.662Z,8.00
2022-12-27T16:54:48.068Z,7.20
2022-12-27T17:00:35.673Z,5.70
2022-12-27T17:05:44.800Z,5.40
2022-12-27T17:10:59.933Z,5.80
2022-12-27T17:21:14.956Z,4.90
2022-12-27T17:26:42.537Z,5.00
2022-12-27T17:31:58.643Z,5.20
2022-12-27T17:37:11.517Z,3.90
2022-12-27T17:42:52.275Z,3.50
2022-12-27T17:48:09.725Z,4.50
2022-12-27T17:53:35.201Z,5.50
2022-12-27T17:58:38.457Z,5.40
2022-12-27T18:03:47.538Z,4.80
2022-12-27T18:08:51.315Z,3.20
2022-12-27T18:13:56.691Z,4.20
2022-12-27T18:19:00.828Z,4.60
2022-12-27T18:24:23.789Z,5.60
2022-12-27T18:29:26.562Z,5.40
2022-12-27T18:34:33.415Z,5.00
2022-12-27T18:44:53.075Z,5.30
2022-12-27T18:50:02.417Z,5.00
2022-12-27T18:55:20.878Z,6.20
2022-12-27T19:00:26.673Z,5.50
2022-12-27T19:05:30.340Z,7.40
2022-12-27T19:10:33.753Z,7.70
2022-12-27T19:15:44.931Z,7.20
2022-12-27T19:20:59.955Z,7.90
2022-12-27T19:26:17.852Z,7.90
2022-12-27T19:31:22.126Z,7.40
2022-12-27T19:36:28.019Z,5.90
2022-12-27T19:41:31.863Z,6.90
2022-12-27T19:46:34.677Z,5.70
2022-12-27T19:51:37.839Z,6.00
2022-12-27T19:56:40.492Z,6.60
2022-12-27T20:01:45.725Z,6.00
2022-12-27T20:06:49.306Z,7.80
2022-12-27T20:11:52.015Z,6.70
2022-12-27T20:16:54.813Z,5.80
2022-12-27T20:21:57.952Z,7.30
2022-12-27T20:27:01.257Z,6.00
2022-12-27T20:32:04.130Z,8.00
2022-12-27T20:37:07.231Z,7.70
2022-12-27T20:42:10.108Z,9.50
2022-12-27T20:47:12.826Z,9.70
2022-12-27T20:52:15.674Z,8.50
2022-12-27T20:57:18.474Z,7.60
2022-12-27T21:02:21.359Z,7.50
2022-12-27T21:07:24.382Z,8.60
2022-12-27T21:12:27.287Z,8.40
2022-12-27T21:17:30.195Z,7.50
2022-12-27T21:22:32.994Z,7.20
2022-12-27T21:27:36.033Z,6.20
2022-12-27T21:32:38.806Z,6.50
2022-12-27T21:37:41.632Z,7.60
2022-12-27T21:42:44.558Z,5.60
2022-12-27T21:47:47.520Z,5.20
2022-12-27T21:52:50.525Z,6.70
2022-12-27T21:57:53.444Z,6.20
2022-12-27T22:02:56.455Z,6.20
2022-12-27T22:07:59.544Z,5.40
2022-12-27T22:13:02.559Z,6.20
2022-12-27T22:18:05.444Z,6.30
2022-12-27T22:23:08.332Z,6.00
2022-12-27T22:28:11.270Z,6.50
2022-12-27T22:33:15.772Z,6.70
2022-12-27T22:38:18.671Z,5.40
2022-12-27T22:43:21.574Z,4.50
2022-12-27T22:48:24.588Z,5.90
2022-12-27T22:53:27.493Z,5.30
2022-12-27T22:58:32.778Z,5.00
2022-12-27T23:03:35.586Z,5.30
2022-12-27T23:08:42.888Z,6.00
2022-12-27T23:13:47.298Z,5.60
2022-12-27T23:18:50.367Z,4.10
2022-12-27T23:23:53.080Z,6.20
2022-12-27T23:28:56.244Z,4.90
2022-12-27T23:33:59.625Z,5.10
2022-12-27T23:39:02.667Z,4.20
2022-12-27T23:44:05.525Z,4.60
2022-12-27T23:49:08.673Z,5.30
2022-12-27T23:54:11.456Z,4.80
2022-12-27T23:59:14.183Z,5.20
